Aéroport int. de Vancouver, Colombie-Britannique

Conditions des dernières 24 heures

Ce tableau est un sommaire des conditions météo couvrant les dernières 24 heures. Ce sommaire inclut les paramètres suivants: température, humidité, point de rosée, direction et vitesse du vent, pression barométrique, facteur de refroidissement éolien ou indice humidex.
Date / Heure
(HAP)
Conditions Temp (°F) Humidite (%) Point de rose (°F) Vent (mph) Pression (pouces) Visibilité (miles)
02 septembre 2014
14:00 Pluie faible 59   92 56 O 6 29.9 8
13:00 Pluie faible 59   89 56 ONO 7 29.9 12
12:00 Pluie faible 60 90 57 ONO 6 29.9 12
11:00 Pluie faible 60 85 55 OSO 8 29.9 12
10:00 Pluie faible 60 87 56 OSO 9 29.9 15
9:00 Pluie faible 60 91 57 ONO 8 29.9 15
8:00 Pluie faible 61 87 57 O 9 29.9 15
7:00 Généralement nuageux 60 89 57 O 9 29.9 15
6:00 Généralement nuageux 61 90 58 O 11 29.9 15
5:00 Généralement nuageux 61 91 58 ONO 13 29.9 15
4:00 Généralement nuageux 60 94 59 ONO 12 29.9 15
3:00 Généralement nuageux 61 93 59 ONO 9 29.9 15
2:00 Généralement nuageux 59   87 55 O 3 30.0 15
1:00 Généralement nuageux 62 79 56 N 2 30.0 15
0:00 Généralement nuageux 62 80 56 SE 5 30.0 15
01 septembre 2014
23:00 Généralement nuageux 64 72 55 SE 5 30.0 15
22:00 Généralement nuageux 65 68 54 ENE 3 30.0 15
21:00 Généralement nuageux 65 67 54 E 6 30.0 15
20:00 Généralement nuageux 66 64 53 SE 6 30.0 20
19:00 Généralement nuageux 67 60 53 SE 6 30.0 20
18:00 Généralement nuageux 68 59 53 SSE 6 30.0 20
17:00 Généralement nuageux 67 69 57 SSO 5 30.0 20
16:00 Généralement nuageux 67 67 56 SSO 9 30.0 20
15:00 Généralement nuageux 68 61 55 S 7 30.0 20
14:00 Généralement nuageux 69   57 53 E 10 30.1 20
N.D.
non disponible
 ↑ 
température la plus haute
 ↓ 
température la plus basse

Si vous désirez plus de données historiques sur les conditions météo, s.v.p. visitez Données climatologiques en ligne.